sensor_id;sensor_type;location;lat;lon;timestamp;pressure;altitude;pressure_sealevel;temperature;humidity
49515;BME280;35415;47.870;16.058;2023-03-18T00:01:03;97109.25;;;2.12;58.50
49515;BME280;35415;47.870;16.058;2023-03-18T00:03:33;97105.19;;;2.09;58.16
49515;BME280;35415;47.870;16.058;2023-03-18T00:06:07;97099.75;;;2.04;57.62
49515;BME280;35415;47.870;16.058;2023-03-18T00:08:36;97037.66;;;1.62;58.33
49515;BME280;35415;47.870;16.058;2023-03-18T00:11:06;97068.56;;;1.75;59.23
49515;BME280;35415;47.870;16.058;2023-03-18T00:13:34;97043.22;;;1.54;58.12
49515;BME280;35415;47.870;16.058;2023-03-18T00:16:03;97116.34;;;1.93;58.62
49515;BME280;35415;47.870;16.058;2023-03-18T00:18:36;97114.34;;;1.89;59.35
49515;BME280;35415;47.870;16.058;2023-03-18T00:21:06;97105.00;;;1.86;59.54
49515;BME280;35415;47.870;16.058;2023-03-18T00:23:34;97091.22;;;1.71;59.89
49515;BME280;35415;47.870;16.058;2023-03-18T00:26:04;97121.53;;;1.81;60.47
49515;BME280;35415;47.870;16.058;2023-03-18T00:28:34;97026.56;;;1.15;60.31
49515;BME280;35415;47.870;16.058;2023-03-18T00:31:06;97052.75;;;1.30;60.60
49515;BME280;35415;47.870;16.058;2023-03-18T00:33:35;97036.94;;;1.17;60.93
49515;BME280;35415;47.870;16.058;2023-03-18T00:36:19;97119.00;;;1.68;59.08
49515;BME280;35415;47.870;16.058;2023-03-18T00:38:52;97052.22;;;1.22;61.37
49515;BME280;35415;47.870;16.058;2023-03-18T00:41:24;97100.31;;;1.50;61.49
49515;BME280;35415;47.870;16.058;2023-03-18T00:43:52;97071.56;;;1.22;61.16
49515;BME280;35415;47.870;16.058;2023-03-18T00:46:21;97089.03;;;1.36;60.92
49515;BME280;35415;47.870;16.058;2023-03-18T00:48:54;97070.94;;;1.27;61.55
49515;BME280;35415;47.870;16.058;2023-03-18T00:51:28;97054.50;;;1.11;62.07
49515;BME280;35415;47.870;16.058;2023-03-18T00:53:59;97054.56;;;1.05;60.94
49515;BME280;35415;47.870;16.058;2023-03-18T00:56:29;97064.34;;;1.04;63.08
49515;BME280;35415;47.870;16.058;2023-03-18T00:59:00;97086.47;;;1.16;62.92
49515;BME280;35415;47.870;16.058;2023-03-18T01:01:39;97018.91;;;0.69;61.39
49515;BME280;35415;47.870;16.058;2023-03-18T01:04:09;97047.28;;;0.94;63.48
49515;BME280;35415;47.870;16.058;2023-03-18T01:06:38;97069.03;;;1.02;63.15
49515;BME280;35415;47.870;16.058;2023-03-18T01:09:09;97027.84;;;0.68;63.25
49515;BME280;35415;47.870;16.058;2023-03-18T01:11:37;96999.41;;;0.57;63.26
49515;BME280;35415;47.870;16.058;2023-03-18T01:14:05;97064.41;;;0.91;62.70
49515;BME280;35415;47.870;16.058;2023-03-18T01:16:38;97011.63;;;0.51;62.89
49515;BME280;35415;47.870;16.058;2023-03-18T01:19:06;97026.41;;;0.66;63.06
49515;BME280;35415;47.870;16.058;2023-03-18T01:21:34;97004.31;;;0.47;64.01
49515;BME280;35415;47.870;16.058;2023-03-18T01:24:05;96997.78;;;0.49;63.53
49515;BME280;35415;47.870;16.058;2023-03-18T01:26:32;97021.16;;;0.59;64.26
49515;BME280;35415;47.870;16.058;2023-03-18T01:29:01;97041.47;;;0.65;64.68
49515;BME280;35415;47.870;16.058;2023-03-18T01:31:36;97007.22;;;0.39;64.07
49515;BME280;35415;47.870;16.058;2023-03-18T01:34:03;97059.38;;;0.76;64.60
49515;BME280;35415;47.870;16.058;2023-03-18T01:36:31;97037.44;;;0.63;64.42
49515;BME280;35415;47.870;16.058;2023-03-18T01:39:00;97019.59;;;0.45;65.01
49515;BME280;35415;47.870;16.058;2023-03-18T01:41:32;97001.91;;;0.32;64.66
49515;BME280;35415;47.870;16.058;2023-03-18T01:44:03;97000.38;;;0.18;65.12
49515;BME280;35415;47.870;16.058;2023-03-18T01:46:34;97087.28;;;0.72;65.40
49515;BME280;35415;47.870;16.058;2023-03-18T01:49:05;97014.75;;;0.28;65.25
49515;BME280;35415;47.870;16.058;2023-03-18T01:51:45;97017.81;;;0.25;64.62
49515;BME280;35415;47.870;16.058;2023-03-18T01:54:15;97112.75;;;0.73;66.14
49515;BME280;35415;47.870;16.058;2023-03-18T01:56:47;97082.66;;;0.54;65.08
49515;BME280;35415;47.870;16.058;2023-03-18T01:59:15;97035.91;;;0.28;65.80
49515;BME280;35415;47.870;16.058;2023-03-18T02:01:51;97009.13;;;0.05;64.99
49515;BME280;35415;47.870;16.058;2023-03-18T02:04:22;97065.63;;;0.37;65.30
49515;BME280;35415;47.870;16.058;2023-03-18T02:06:52;97080.03;;;0.48;65.61
49515;BME280;35415;47.870;16.058;2023-03-18T02:09:19;97041.47;;;0.07;66.36
49515;BME280;35415;47.870;16.058;2023-03-18T02:11:51;97024.59;;;0.02;66.30
49515;BME280;35415;47.870;16.058;2023-03-18T02:14:20;97062.78;;;0.25;66.14
49515;BME280;35415;47.870;16.058;2023-03-18T02:16:54;97112.38;;;0.50;66.51
49515;BME280;35415;47.870;16.058;2023-03-18T02:19:55;97103.66;;;0.43;65.59
49515;BME280;35415;47.870;16.058;2023-03-18T02:22:29;97069.13;;;0.18;67.12
49515;BME280;35415;47.870;16.058;2023-03-18T02:25:16;97081.13;;;0.14;66.52
49515;BME280;35415;47.870;16.058;2023-03-18T02:27:56;97059.38;;;-0.02;66.98
49515;BME280;35415;47.870;16.058;2023-03-18T02:30:32;97023.81;;;-0.19;67.52
49515;BME280;35415;47.870;16.058;2023-03-18T02:33:02;97083.16;;;0.12;67.29
49515;BME280;35415;47.870;16.058;2023-03-18T02:35:33;97069.94;;;0.12;68.51
49515;BME280;35415;47.870;16.058;2023-03-18T02:38:04;97054.31;;;-0.10;68.48
49515;BME280;35415;47.870;16.058;2023-03-18T02:40:37;97070.94;;;0.11;67.06
49515;BME280;35415;47.870;16.058;2023-03-18T02:43:22;97053.09;;;-0.07;67.24
49515;BME280;35415;47.870;16.058;2023-03-18T02:46:06;97022.19;;;-0.26;66.38
49515;BME280;35415;47.870;16.058;2023-03-18T02:48:40;97041.09;;;-0.16;67.74
49515;BME280;35415;47.870;16.058;2023-03-18T02:51:09;97027.28;;;-0.32;68.03
49515;BME280;35415;47.870;16.058;2023-03-18T02:53:39;97043.53;;;-0.15;67.97
49515;BME280;35415;47.870;16.058;2023-03-18T02:56:08;97091.72;;;0.07;67.37
49515;BME280;35415;47.870;16.058;2023-03-18T02:58:39;97089.69;;;0.03;68.28
49515;BME280;35415;47.870;16.058;2023-03-18T03:01:07;97031.53;;;-0.37;68.96
49515;BME280;35415;47.870;16.058;2023-03-18T03:03:36;97132.16;;;0.27;68.56
49515;BME280;35415;47.870;16.058;2023-03-18T03:06:05;97087.25;;;-0.12;69.25
49515;BME280;35415;47.870;16.058;2023-03-18T03:08:33;97080.94;;;-0.24;69.32
49515;BME280;35415;47.870;16.058;2023-03-18T03:11:00;97049.03;;;-0.49;69.30
49515;BME280;35415;47.870;16.058;2023-03-18T03:13:28;97117.56;;;-0.08;69.79
49515;BME280;35415;47.870;16.058;2023-03-18T03:16:06;97088.88;;;-0.24;69.10
49515;BME280;35415;47.870;16.058;2023-03-18T03:18:36;97115.13;;;-0.16;70.35
49515;BME280;35415;47.870;16.058;2023-03-18T03:21:04;97092.94;;;-0.35;68.81
49515;BME280;35415;47.870;16.058;2023-03-18T03:23:34;97102.69;;;-0.42;70.54
49515;BME280;35415;47.870;16.058;2023-03-18T03:26:04;97191.59;;;0.18;69.70
49515;BME280;35415;47.870;16.058;2023-03-18T03:28:35;97121.63;;;-0.32;70.41
49515;BME280;35415;47.870;16.058;2023-03-18T03:31:07;97168.22;;;0.02;70.33
49515;BME280;35415;47.870;16.058;2023-03-18T03:33:37;97086.66;;;-0.47;70.98
49515;BME280;35415;47.870;16.058;2023-03-18T03:36:08;97155.97;;;-0.06;71.47
49515;BME280;35415;47.870;16.058;2023-03-18T03:38:35;97180.81;;;0.00;71.46
49515;BME280;35415;47.870;16.058;2023-03-18T03:41:04;97204.00;;;0.11;71.28
49515;BME280;35415;47.870;16.058;2023-03-18T03:43:35;97150.06;;;-0.27;71.21
49515;BME280;35415;47.870;16.058;2023-03-18T03:46:06;97120.34;;;-0.56;72.02
49515;BME280;35415;47.870;16.058;2023-03-18T03:48:37;97137.81;;;-0.55;72.00
49515;BME280;35415;47.870;16.058;2023-03-18T03:51:06;97234.94;;;0.04;72.51
49515;BME280;35415;47.870;16.058;2023-03-18T03:53:37;97126.84;;;-0.65;72.15
49515;BME280;35415;47.870;16.058;2023-03-18T03:56:06;97136.59;;;-0.59;72.12
49515;BME280;35415;47.870;16.058;2023-03-18T03:58:35;97163.66;;;-0.50;72.01
49515;BME280;35415;47.870;16.058;2023-03-18T04:01:05;97171.00;;;-0.46;72.20
49515;BME280;35415;47.870;16.058;2023-03-18T04:03:33;97149.59;;;-0.64;71.84
49515;BME280;35415;47.870;16.058;2023-03-18T04:06:07;97256.66;;;-0.01;71.10
49515;BME280;35415;47.870;16.058;2023-03-18T04:08:37;97216.56;;;-0.24;71.85
49515;BME280;35415;47.870;16.058;2023-03-18T04:11:09;97169.13;;;-0.52;72.43
49515;BME280;35415;47.870;16.058;2023-03-18T04:13:37;97140.03;;;-0.72;71.35
49515;BME280;35415;47.870;16.058;2023-03-18T04:16:09;97196.00;;;-0.35;71.44
49515;BME280;35415;47.870;16.058;2023-03-18T04:18:37;97147.78;;;-0.64;72.04
49515;BME280;35415;47.870;16.058;2023-03-18T04:21:05;97155.91;;;-0.58;71.96
49515;BME280;35415;47.870;16.058;2023-03-18T04:23:35;97145.50;;;-0.73;72.58
49515;BME280;35415;47.870;16.058;2023-03-18T04:26:02;97231.19;;;-0.21;72.34
49515;BME280;35415;47.870;16.058;2023-03-18T04:28:31;97158.91;;;-0.68;72.82
49515;BME280;35415;47.870;16.058;2023-03-18T04:30:58;97228.34;;;-0.33;72.43
49515;BME280;35415;47.870;16.058;2023-03-18T04:33:28;97154.66;;;-0.76;72.37
49515;BME280;35415;47.870;16.058;2023-03-18T04:35:56;97163.38;;;-0.75;73.16
49515;BME280;35415;47.870;16.058;2023-03-18T04:38:24;97206.91;;;-0.58;72.91
49515;BME280;35415;47.870;16.058;2023-03-18T04:40:53;97201.84;;;-0.59;73.02
49515;BME280;35415;47.870;16.058;2023-03-18T04:43:21;97187.00;;;-0.67;72.51
49515;BME280;35415;47.870;16.058;2023-03-18T04:45:51;97238.66;;;-0.45;72.88
49515;BME280;35415;47.870;16.058;2023-03-18T04:48:19;97161.91;;;-0.84;72.53
49515;BME280;35415;47.870;16.058;2023-03-18T04:50:48;97238.06;;;-0.47;73.28
49515;BME280;35415;47.870;16.058;2023-03-18T04:53:16;97223.59;;;-0.51;73.47
49515;BME280;35415;47.870;16.058;2023-03-18T04:55:43;97171.25;;;-0.88;74.06
49515;BME280;35415;47.870;16.058;2023-03-18T04:58:11;97176.72;;;-0.90;73.89
49515;BME280;35415;47.870;16.058;2023-03-18T05:00:39;97169.59;;;-0.96;73.56
49515;BME280;35415;47.870;16.058;2023-03-18T05:03:07;97254.53;;;-0.45;74.50
49515;BME280;35415;47.870;16.058;2023-03-18T05:05:36;97234.69;;;-0.69;73.74
49515;BME280;35415;47.870;16.058;2023-03-18T05:08:07;97283.41;;;-0.37;74.60
49515;BME280;35415;47.870;16.058;2023-03-18T05:10:37;97249.78;;;-0.63;75.28
49515;BME280;35415;47.870;16.058;2023-03-18T05:13:05;97218.16;;;-0.91;75.43
49515;BME280;35415;47.870;16.058;2023-03-18T05:15:36;97284.34;;;-0.57;74.87
49515;BME280;35415;47.870;16.058;2023-03-18T05:18:03;97280.69;;;-0.56;75.64
49515;BME280;35415;47.870;16.058;2023-03-18T05:20:31;97265.78;;;-0.71;75.35
49515;BME280;35415;47.870;16.058;2023-03-18T05:23:00;97236.44;;;-0.89;75.47
49515;BME280;35415;47.870;16.058;2023-03-18T05:25:30;97284.75;;;-0.61;75.56
49515;BME280;35415;47.870;16.058;2023-03-18T05:28:05;97243.56;;;-0.89;76.12
49515;BME280;35415;47.870;16.058;2023-03-18T05:30:39;97195.28;;;-1.18;75.68
49515;BME280;35415;47.870;16.058;2023-03-18T05:33:07;97303.25;;;-0.54;75.96
49515;BME280;35415;47.870;16.058;2023-03-18T05:35:35;97285.69;;;-0.75;75.68
49515;BME280;35415;47.870;16.058;2023-03-18T05:38:04;97206.66;;;-1.17;76.10
49515;BME280;35415;47.870;16.058;2023-03-18T05:40:37;97261.03;;;-0.88;76.34
49515;BME280;35415;47.870;16.058;2023-03-18T05:43:05;97286.28;;;-0.73;75.92
49515;BME280;35415;47.870;16.058;2023-03-18T05:45:35;97252.88;;;-0.94;76.28
49515;BME280;35415;47.870;16.058;2023-03-18T05:48:15;97313.63;;;-0.52;76.44
49515;BME280;35415;47.870;16.058;2023-03-18T05:50:52;97275.94;;;-0.74;76.59
49515;BME280;35415;47.870;16.058;2023-03-18T05:53:20;97299.97;;;-0.63;77.65
49515;BME280;35415;47.870;16.058;2023-03-18T05:55:49;97256.13;;;-0.92;77.32
49515;BME280;35415;47.870;16.058;2023-03-18T05:58:18;97321.34;;;-0.51;77.18
49515;BME280;35415;47.870;16.058;2023-03-18T06:00:45;97308.09;;;-0.64;76.96
49515;BME280;35415;47.870;16.058;2023-03-18T06:03:13;97262.91;;;-0.82;77.07
49515;BME280;35415;47.870;16.058;2023-03-18T06:05:41;97278.78;;;-0.69;77.27
49515;BME280;35415;47.870;16.058;2023-03-18T06:08:08;97315.91;;;-0.43;77.06
49515;BME280;35415;47.870;16.058;2023-03-18T06:10:37;97277.75;;;-0.75;77.08
49515;BME280;35415;47.870;16.058;2023-03-18T06:13:06;97309.41;;;-0.47;77.06
49515;BME280;35415;47.870;16.058;2023-03-18T06:15:34;97281.63;;;-0.71;77.18
49515;BME280;35415;47.870;16.058;2023-03-18T06:18:02;97310.81;;;-0.44;77.38
49515;BME280;35415;47.870;16.058;2023-03-18T06:20:30;97335.44;;;-0.37;77.12
49515;BME280;35415;47.870;16.058;2023-03-18T06:22:59;97229.94;;;-0.93;76.73
49515;BME280;35415;47.870;16.058;2023-03-18T06:25:27;97287.00;;;-0.51;76.85
49515;BME280;35415;47.870;16.058;2023-03-18T06:27:54;97298.88;;;-0.34;77.14
49515;BME280;35415;47.870;16.058;2023-03-18T06:30:23;97315.78;;;-0.28;76.70
49515;BME280;35415;47.870;16.058;2023-03-18T06:32:50;97301.53;;;-0.34;76.86
49515;BME280;35415;47.870;16.058;2023-03-18T06:35:19;97347.22;;;0.02;76.97
49515;BME280;35415;47.870;16.058;2023-03-18T06:37:47;97333.78;;;0.03;76.87
49515;BME280;35415;47.870;16.058;2023-03-18T06:40:15;97314.63;;;-0.12;76.82
49515;BME280;35415;47.870;16.058;2023-03-18T06:42:42;97274.91;;;-0.32;75.82
49515;BME280;35415;47.870;16.058;2023-03-18T06:45:10;97289.59;;;-0.16;76.36
49515;BME280;35415;47.870;16.058;2023-03-18T06:47:39;97361.72;;;0.32;76.15
49515;BME280;35415;47.870;16.058;2023-03-18T06:50:08;97363.78;;;0.37;75.92
49515;BME280;35415;47.870;16.058;2023-03-18T06:52:36;97335.47;;;0.30;75.39
49515;BME280;35415;47.870;16.058;2023-03-18T06:55:05;97361.78;;;0.52;75.08
49515;BME280;35415;47.870;16.058;2023-03-18T06:57:32;97305.94;;;0.20;74.92
49515;BME280;35415;47.870;16.058;2023-03-18T07:00:00;97346.50;;;0.54;74.62
49515;BME280;35415;47.870;16.058;2023-03-18T07:02:29;97332.47;;;0.53;74.51
49515;BME280;35415;47.870;16.058;2023-03-18T07:04:58;97359.56;;;0.75;74.13
49515;BME280;35415;47.870;16.058;2023-03-18T07:07:26;97361.97;;;0.83;74.27
49515;BME280;35415;47.870;16.058;2023-03-18T07:09:53;97363.22;;;0.87;73.35
49515;BME280;35415;47.870;16.058;2023-03-18T07:12:21;97332.06;;;0.89;73.76
49515;BME280;35415;47.870;16.058;2023-03-18T07:14:48;97328.59;;;0.96;72.80
49515;BME280;35415;47.870;16.058;2023-03-18T07:17:15;97309.03;;;0.90;72.49
49515;BME280;35415;47.870;16.058;2023-03-18T07:19:43;97301.09;;;0.90;72.33
49515;BME280;35415;47.870;16.058;2023-03-18T07:22:13;97296.81;;;0.96;71.72
49515;BME280;35415;47.870;16.058;2023-03-18T07:24:41;97257.72;;;0.84;71.84
49515;BME280;35415;47.870;16.058;2023-03-18T07:27:09;97270.13;;;1.04;70.47
49515;BME280;35415;47.870;16.058;2023-03-18T07:29:37;97254.22;;;1.04;70.00
49515;BME280;35415;47.870;16.058;2023-03-18T07:32:05;97321.34;;;1.56;69.76
49515;BME280;35415;47.870;16.058;2023-03-18T07:34:32;97354.03;;;1.94;69.22
49515;BME280;35415;47.870;16.058;2023-03-18T07:36:59;97355.03;;;2.06;68.25
49515;BME280;35415;47.870;16.058;2023-03-18T07:39:28;97302.28;;;1.85;68.05
49515;BME280;35415;47.870;16.058;2023-03-18T07:41:56;97351.44;;;2.26;67.41
49515;BME280;35415;47.870;16.058;2023-03-18T07:44:26;97275.06;;;1.96;66.92
49515;BME280;35415;47.870;16.058;2023-03-18T07:46:53;97360.03;;;2.59;65.79
49515;BME280;35415;47.870;16.058;2023-03-18T07:49:20;97305.44;;;2.38;64.77
49515;BME280;35415;47.870;16.058;2023-03-18T07:51:50;97279.53;;;2.34;64.44
49515;BME280;35415;47.870;16.058;2023-03-18T07:54:18;97302.59;;;2.65;63.88
49515;BME280;35415;47.870;16.058;2023-03-18T07:56:47;97318.97;;;2.87;63.97
49515;BME280;35415;47.870;16.058;2023-03-18T07:59:14;97352.00;;;3.22;63.82
49515;BME280;35415;47.870;16.058;2023-03-18T08:01:48;97323.19;;;3.19;63.08
49515;BME280;35415;47.870;16.058;2023-03-18T08:04:15;97336.66;;;3.43;62.50
49515;BME280;35415;47.870;16.058;2023-03-18T08:06:43;97258.28;;;3.09;61.01
49515;BME280;35415;47.870;16.058;2023-03-18T08:09:11;97319.75;;;3.55;61.86
49515;BME280;35415;47.870;16.058;2023-03-18T08:11:38;97313.69;;;3.67;62.28
49515;BME280;35415;47.870;16.058;2023-03-18T08:14:07;97300.53;;;3.72;62.32
49515;BME280;35415;47.870;16.058;2023-03-18T08:16:38;97283.59;;;3.84;61.89
49515;BME280;35415;47.870;16.058;2023-03-18T08:19:16;97354.09;;;4.42;62.07
49515;BME280;35415;47.870;16.058;2023-03-18T08:21:51;97338.72;;;4.44;59.63
49515;BME280;35415;47.870;16.058;2023-03-18T08:24:19;97321.72;;;4.57;58.63
49515;BME280;35415;47.870;16.058;2023-03-18T08:26:46;97316.19;;;4.70;59.83
49515;BME280;35415;47.870;16.058;2023-03-18T08:29:16;97321.91;;;4.97;58.59
49515;BME280;35415;47.870;16.058;2023-03-18T08:31:44;97285.75;;;4.89;58.00
49515;BME280;35415;47.870;16.058;2023-03-18T08:34:14;97329.59;;;5.40;56.85
49515;BME280;35415;47.870;16.058;2023-03-18T08:36:48;97301.97;;;5.34;57.38
49515;BME280;35415;47.870;16.058;2023-03-18T08:39:17;97268.13;;;5.35;56.94
49515;BME280;35415;47.870;16.058;2023-03-18T08:41:50;97330.81;;;5.96;57.08
49515;BME280;35415;47.870;16.058;2023-03-18T08:44:36;97312.22;;;6.01;58.04
49515;BME280;35415;47.870;16.058;2023-03-18T08:47:07;97300.78;;;6.17;54.51
49515;BME280;35415;47.870;16.058;2023-03-18T08:49:35;97285.78;;;6.28;53.86
49515;BME280;35415;47.870;16.058;2023-03-18T08:52:02;97301.31;;;6.59;52.94
49515;BME280;35415;47.870;16.058;2023-03-18T08:54:31;97296.53;;;6.78;52.29
49515;BME280;35415;47.870;16.058;2023-03-18T08:56:58;97299.94;;;7.07;51.50
49515;BME280;35415;47.870;16.058;2023-03-18T08:59:28;97305.03;;;7.26;50.74
49515;BME280;35415;47.870;16.058;2023-03-18T09:01:55;97327.81;;;7.67;50.52
49515;BME280;35415;47.870;16.058;2023-03-18T09:04:24;97269.84;;;7.55;49.10
49515;BME280;35415;47.870;16.058;2023-03-18T09:06:55;97316.25;;;8.05;48.29
49515;BME280;35415;47.870;16.058;2023-03-18T09:09:22;97269.56;;;7.96;48.23
49515;BME280;35415;47.870;16.058;2023-03-18T09:11:49;97324.03;;;8.50;47.05
49515;BME280;35415;47.870;16.058;2023-03-18T09:14:21;97291.28;;;8.43;47.28
49515;BME280;35415;47.870;16.058;2023-03-18T09:16:49;97338.69;;;8.96;46.82
49515;BME280;35415;47.870;16.058;2023-03-18T09:19:17;97257.97;;;8.66;46.92
49515;BME280;35415;47.870;16.058;2023-03-18T09:21:45;97286.50;;;9.09;45.42
49515;BME280;35415;47.870;16.058;2023-03-18T09:24:18;97238.91;;;8.99;45.70
49515;BME280;35415;47.870;16.058;2023-03-18T09:26:46;97248.75;;;9.26;44.56
49515;BME280;35415;47.870;16.058;2023-03-18T09:29:13;97252.91;;;9.49;44.28
49515;BME280;35415;47.870;16.058;2023-03-18T09:31:41;97253.00;;;9.69;43.58
49515;BME280;35415;47.870;16.058;2023-03-18T09:34:11;97288.38;;;10.08;43.42
49515;BME280;35415;47.870;16.058;2023-03-18T09:36:39;97266.63;;;10.15;43.01
49515;BME280;35415;47.870;16.058;2023-03-18T09:39:13;97273.69;;;10.36;42.93
49515;BME280;35415;47.870;16.058;2023-03-18T09:41:51;97293.91;;;10.69;42.47
49515;BME280;35415;47.870;16.058;2023-03-18T09:44:23;97291.25;;;11.00;41.61
49515;BME280;35415;47.870;16.058;2023-03-18T09:49:56;97246.03;;;11.07;42.03
49515;BME280;35415;47.870;16.058;2023-03-18T09:52:33;97279.91;;;11.49;39.79
49515;BME280;35415;47.870;16.058;2023-03-18T09:55:07;97261.81;;;11.54;39.25
49515;BME280;35415;47.870;16.058;2023-03-18T09:57:42;97310.47;;;12.03;38.98
49515;BME280;35415;47.870;16.058;2023-03-18T10:00:18;97280.28;;;12.12;39.07
49515;BME280;35415;47.870;16.058;2023-03-18T10:02:51;97263.56;;;12.10;37.92
49515;BME280;35415;47.870;16.058;2023-03-18T10:05:26;97252.41;;;12.26;37.94
49515;BME280;35415;47.870;16.058;2023-03-18T10:08:00;97223.84;;;12.20;37.26
49515;BME280;35415;47.870;16.058;2023-03-18T10:10:35;97258.69;;;12.56;37.37
49515;BME280;35415;47.870;16.058;2023-03-18T10:13:08;97281.16;;;12.85;36.26
49515;BME280;35415;47.870;16.058;2023-03-18T10:15:44;97227.88;;;12.67;36.96
49515;BME280;35415;47.870;16.058;2023-03-18T10:18:19;97266.13;;;13.08;35.96
49515;BME280;35415;47.870;16.058;2023-03-18T10:20:57;97255.81;;;13.15;37.16
49515;BME280;35415;47.870;16.058;2023-03-18T10:23:39;97231.78;;;13.14;36.78
49515;BME280;35415;47.870;16.058;2023-03-18T10:26:19;97251.94;;;13.27;35.17
49515;BME280;35415;47.870;16.058;2023-03-18T10:29:05;97304.06;;;13.85;36.58
49515;BME280;35415;47.870;16.058;2023-03-18T10:31:44;97275.81;;;13.72;35.75
49515;BME280;35415;47.870;16.058;2023-03-18T10:34:18;97297.66;;;14.00;34.58
49515;BME280;35415;47.870;16.058;2023-03-18T10:37:02;97291.56;;;14.13;35.05
49515;BME280;35415;47.870;16.058;2023-03-18T10:39:34;97316.59;;;14.48;34.98
49515;BME280;35415;47.870;16.058;2023-03-18T10:42:16;97273.28;;;14.24;35.08
49515;BME280;35415;47.870;16.058;2023-03-18T10:44:45;97287.63;;;14.48;34.22
49515;BME280;35415;47.870;16.058;2023-03-18T10:47:17;97263.56;;;14.41;34.17
49515;BME280;35415;47.870;16.058;2023-03-18T10:49:56;97324.34;;;14.92;34.10
49515;BME280;35415;47.870;16.058;2023-03-18T10:52:33;97293.38;;;14.98;33.96
49515;BME280;35415;47.870;16.058;2023-03-18T10:55:07;97310.91;;;15.19;32.99
49515;BME280;35415;47.870;16.058;2023-03-18T10:57:39;97251.72;;;14.94;32.31
49515;BME280;35415;47.870;16.058;2023-03-18T11:00:25;97280.00;;;15.20;34.10
49515;BME280;35415;47.870;16.058;2023-03-18T11:02:54;97268.56;;;15.23;33.67
49515;BME280;35415;47.870;16.058;2023-03-18T11:05:28;97304.25;;;15.63;32.37
49515;BME280;35415;47.870;16.058;2023-03-18T11:08:01;97246.03;;;15.42;32.72
49515;BME280;35415;47.870;16.058;2023-03-18T11:10:33;97235.28;;;15.37;31.53
49515;BME280;35415;47.870;16.058;2023-03-18T11:13:02;97260.84;;;15.77;31.44
49515;BME280;35415;47.870;16.058;2023-03-18T11:15:36;97279.25;;;15.93;32.23
49515;BME280;35415;47.870;16.058;2023-03-18T11:18:04;97277.75;;;16.01;31.86
49515;BME280;35415;47.870;16.058;2023-03-18T11:20:38;97255.44;;;16.04;32.16
49515;BME280;35415;47.870;16.058;2023-03-18T11:23:17;97246.38;;;16.09;31.70
49515;BME280;35415;47.870;16.058;2023-03-18T11:25:46;97260.75;;;16.23;30.96
49515;BME280;35415;47.870;16.058;2023-03-18T11:28:27;97260.22;;;16.35;32.54
49515;BME280;35415;47.870;16.058;2023-03-18T11:31:03;97239.13;;;16.32;31.34
49515;BME280;35415;47.870;16.058;2023-03-18T11:33:33;97268.28;;;16.62;30.94
49515;BME280;35415;47.870;16.058;2023-03-18T11:36:06;97230.34;;;16.48;31.34
49515;BME280;35415;47.870;16.058;2023-03-18T11:38:37;97279.28;;;16.93;31.15
49515;BME280;35415;47.870;16.058;2023-03-18T11:41:06;97230.69;;;16.69;31.83
49515;BME280;35415;47.870;16.058;2023-03-18T11:43:36;97282.03;;;17.16;31.44
49515;BME280;35415;47.870;16.058;2023-03-18T11:46:06;97242.31;;;17.06;30.92
49515;BME280;35415;47.870;16.058;2023-03-18T11:48:37;97206.88;;;16.89;30.59
49515;BME280;35415;47.870;16.058;2023-03-18T11:51:17;97262.84;;;17.43;30.86
49515;BME280;35415;47.870;16.058;2023-03-18T11:54:08;97228.88;;;17.32;31.11
49515;BME280;35415;47.870;16.058;2023-03-18T11:56:42;97256.56;;;17.65;30.09
49515;BME280;35415;47.870;16.058;2023-03-18T11:59:39;97253.59;;;17.75;31.31
49515;BME280;35415;47.870;16.058;2023-03-18T12:02:25;97251.03;;;17.79;31.64
49515;BME280;35415;47.870;16.058;2023-03-18T12:07:56;97246.00;;;18.03;30.37
49515;BME280;35415;47.870;16.058;2023-03-18T12:10:33;97213.16;;;17.91;28.88
49515;BME280;35415;47.870;16.058;2023-03-18T12:13:20;97231.97;;;18.18;30.64
49515;BME280;35415;47.870;16.058;2023-03-18T12:16:01;97233.88;;;18.26;30.11
49515;BME280;35415;47.870;16.058;2023-03-18T12:18:39;97187.25;;;18.11;29.67
49515;BME280;35415;47.870;16.058;2023-03-18T12:21:29;97226.22;;;18.46;30.67
49515;BME280;35415;47.870;16.058;2023-03-18T12:24:15;97148.03;;;18.12;30.04
49515;BME280;35415;47.870;16.058;2023-03-18T12:26:55;97213.44;;;18.63;29.99
49515;BME280;35415;47.870;16.058;2023-03-18T12:29:49;97203.03;;;18.66;30.53
49515;BME280;35415;47.870;16.058;2023-03-18T12:32:25;97170.16;;;18.53;28.61
49515;BME280;35415;47.870;16.058;2023-03-18T12:35:13;97215.22;;;18.85;29.72
49515;BME280;35415;47.870;16.058;2023-03-18T12:37:52;97193.88;;;18.87;30.30
49515;BME280;35415;47.870;16.058;2023-03-18T12:40:36;97207.66;;;19.00;29.46
49515;BME280;35415;47.870;16.058;2023-03-18T12:43:30;97203.94;;;19.13;30.03
49515;BME280;35415;47.870;16.058;2023-03-18T12:46:04;97143.88;;;18.75;28.88
49515;BME280;35415;47.870;16.058;2023-03-18T12:48:43;97201.19;;;19.21;29.57
49515;BME280;35415;47.870;16.058;2023-03-18T12:51:17;97197.81;;;19.24;28.23
49515;BME280;35415;47.870;16.058;2023-03-18T12:53:49;97181.44;;;19.24;28.56
49515;BME280;35415;47.870;16.058;2023-03-18T12:56:20;97215.41;;;19.44;28.54
49515;BME280;35415;47.870;16.058;2023-03-18T12:58:54;97161.09;;;19.13;28.89
49515;BME280;35415;47.870;16.058;2023-03-18T13:01:29;97142.19;;;19.08;28.21
49515;BME280;35415;47.870;16.058;2023-03-18T13:04:02;97209.91;;;19.62;28.11
49515;BME280;35415;47.870;16.058;2023-03-18T13:06:36;97179.28;;;19.47;28.33
49515;BME280;35415;47.870;16.058;2023-03-18T13:09:11;97144.41;;;19.23;28.59
49515;BME280;35415;47.870;16.058;2023-03-18T13:11:55;97138.75;;;19.37;28.24
49515;BME280;35415;47.870;16.058;2023-03-18T13:14:41;97162.59;;;19.49;28.48
49515;BME280;35415;47.870;16.058;2023-03-18T13:17:12;97176.03;;;19.63;27.53
49515;BME280;35415;47.870;16.058;2023-03-18T13:19:45;97221.63;;;20.00;27.84
49515;BME280;35415;47.870;16.058;2023-03-18T13:22:35;97199.88;;;19.83;28.04
49515;BME280;35415;47.870;16.058;2023-03-18T13:25:20;97205.47;;;19.87;27.46